Time;durP1;ratioP1;P1;durP2;ratioP2;P2;SDS_P1;SDS_P2;PMS_P1;PMS_P2;Temp;Humidity;BMP_temperature;BMP_pressure;BME280_temperature;BME280_humidity;BME280_pressure;Samples;Min_cycle;Max_cycle;Signal;HPM_P1;HPM_P2
2021/12/23 00:01:49;;;;;;;25.43;13.23;;;-2.80;99.90;;;;;;4919911;29;20178;-92
2021/12/23 00:04:15;;;;;;;20.10;12.87;;;-2.80;99.90;;;;;;4915955;29;20194;-91
2021/12/23 00:06:44;;;;;;;24.50;13.23;;;-2.80;99.90;;;;;;4937604;29;20668;-90
2021/12/23 00:09:11;;;;;;;19.13;12.20;;;-2.80;99.90;;;;;;4880249;29;1231406;-93
2021/12/23 00:11:36;;;;;;;19.50;12.27;;;-2.80;99.90;;;;;;4928785;29;20311;-91
2021/12/23 00:14:07;;;;;;;20.40;11.83;;;-2.80;99.90;;;;;;4922990;29;20278;-91
2021/12/23 00:16:49;;;;;;;20.10;11.80;;;-2.80;99.90;;;;;;4938274;29;20207;-92
2021/12/23 00:19:47;;;;;;;20.57;12.93;;;-2.80;99.90;;;;;;4938708;29;20235;-91
2021/12/23 00:24:50;;;;;;;22.27;12.50;;;-2.80;99.90;;;;;;4940002;29;20619;-92
2021/12/23 00:27:18;;;;;;;20.50;12.27;;;-2.80;99.90;;;;;;4922380;29;20212;-91
2021/12/23 00:29:43;;;;;;;20.17;12.20;;;-2.80;99.90;;;;;;4922380;29;20187;-93
2021/12/23 00:32:09;;;;;;;19.67;12.43;;;-2.80;99.90;;;;;;4939561;29;20191;-92
2021/12/23 00:34:39;;;;;;;20.93;11.73;;;-2.80;99.90;;;;;;4937933;29;20183;-91
2021/12/23 00:37:10;;;;;;;21.03;11.43;;;-2.90;99.90;;;;;;4922357;29;20321;-92
2021/12/23 00:39:37;;;;;;;20.20;12.40;;;-2.80;99.90;;;;;;4921521;29;20554;-92
2021/12/23 00:42:08;;;;;;;18.90;11.77;;;-2.90;99.90;;;;;;4922025;29;20222;-92
2021/12/23 00:44:36;;;;;;;21.00;12.33;;;-2.90;99.90;;;;;;4922422;29;20189;-90
2021/12/23 00:47:03;;;;;;;19.40;11.77;;;-2.90;99.90;;;;;;4922229;29;20219;-91
2021/12/23 00:49:30;;;;;;;21.30;13.13;;;-2.90;99.90;;;;;;4922447;29;20204;-91
2021/12/23 00:51:57;;;;;;;20.87;12.17;;;-2.90;99.90;;;;;;4922058;29;20222;-91
2021/12/23 00:54:23;;;;;;;19.03;12.20;;;-2.90;99.90;;;;;;4937805;29;20246;-93
2021/12/23 00:56:51;;;;;;;19.57;12.07;;;-2.90;99.90;;;;;;4921816;29;20215;-90
2021/12/23 00:59:16;;;;;;;19.43;12.10;;;-3.00;99.90;;;;;;4937768;29;20282;-94
2021/12/23 01:01:43;;;;;;;17.60;11.53;;;-2.90;99.90;;;;;;4921931;29;20268;-90
2021/12/23 01:04:09;;;;;;;21.30;12.40;;;-2.90;99.90;;;;;;4921975;29;20622;-91
2021/12/23 01:06:35;;;;;;;17.67;11.13;;;-2.90;99.90;;;;;;4921423;29;20302;-90
2021/12/23 01:09:01;;;;;;;19.47;11.30;;;-2.90;99.90;;;;;;4921796;29;20734;-92
2021/12/23 01:11:27;;;;;;;18.03;11.43;;;-2.90;99.90;;;;;;4921874;29;20191;-91
2021/12/23 01:14:39;;;;;;;22.77;12.00;;;-2.90;99.90;;;;;;4937414;29;20283;-90
2021/12/23 01:16:49;;;;;;;19.67;10.67;;;-2.90;99.90;;;;;;4937212;29;20733;-91
2021/12/23 01:19:18;;;;;;;18.17;11.20;;;-2.90;99.90;;;;;;4921567;29;20195;-90
2021/12/23 01:21:44;;;;;;;19.43;11.87;;;-2.90;99.90;;;;;;4937410;29;20626;-92
2021/12/23 01:24:10;;;;;;;19.00;11.47;;;-2.80;99.90;;;;;;4921566;29;20209;-90
2021/12/23 01:26:38;;;;;;;16.83;10.53;;;-2.80;99.90;;;;;;4921376;29;20259;-90
2021/12/23 01:29:05;;;;;;;17.90;11.30;;;-2.80;99.90;;;;;;4921875;29;20195;-91
2021/12/23 01:31:32;;;;;;;17.53;10.63;;;-2.80;99.90;;;;;;4938455;29;20174;-91
2021/12/23 01:33:59;;;;;;;17.43;11.10;;;-2.80;99.90;;;;;;4937365;29;20195;-91
2021/12/23 01:36:26;;;;;;;17.73;11.33;;;-2.80;99.90;;;;;;4936988;29;20673;-92
2021/12/23 01:38:52;;;;;;;19.87;11.27;;;-2.80;99.90;;;;;;4937991;29;20274;-92
2021/12/23 01:41:21;;;;;;;18.70;10.93;;;-2.80;99.90;;;;;;4925540;29;20665;-93
2021/12/23 01:43:47;;;;;;;18.87;10.93;;;-2.80;99.90;;;;;;4937317;29;20200;-92
2021/12/23 01:46:14;;;;;;;17.03;11.13;;;-2.80;99.90;;;;;;4937045;29;20234;-93
2021/12/23 01:48:40;;;;;;;18.97;10.80;;;-2.80;99.90;;;;;;4937094;29;20362;-92
2021/12/23 01:51:06;;;;;;;16.60;10.33;;;-2.80;99.90;;;;;;4936651;29;20194;-90
2021/12/23 01:53:33;;;;;;;17.00;10.40;;;-2.80;99.90;;;;;;4938296;29;20198;-92
2021/12/23 01:56:00;;;;;;;17.00;10.67;;;-2.80;99.90;;;;;;4920750;29;20197;-91
2021/12/23 01:58:26;;;;;;;17.87;11.23;;;-2.80;99.90;;;;;;4918122;29;20215;-90
2021/12/23 02:00:53;;;;;;;20.97;11.67;;;-2.70;99.90;;;;;;4902029;29;20248;-93
2021/12/23 02:03:20;;;;;;;21.67;11.73;;;-2.80;99.90;;;;;;4921562;29;20191;-92
2021/12/23 02:05:48;;;;;;;18.30;12.00;;;-2.70;99.90;;;;;;4935083;29;20191;-91
2021/12/23 02:08:14;;;;;;;18.93;11.67;;;-2.70;99.90;;;;;;4936241;29;20191;-91
2021/12/23 02:10:41;;;;;;;18.60;11.93;;;-2.70;99.90;;;;;;4920604;29;20231;-92
2021/12/23 02:13:07;;;;;;;17.50;11.43;;;-2.70;99.90;;;;;;4920863;29;20205;-93
2021/12/23 02:15:36;;;;;;;20.03;12.10;;;-2.70;99.90;;;;;;4920778;29;20196;-91
2021/12/23 02:18:02;;;;;;;20.73;13.33;;;-2.70;99.90;;;;;;4936108;29;20310;-93
2021/12/23 02:20:32;;;;;;;22.90;13.03;;;-2.70;99.90;;;;;;4921275;29;20199;-91
2021/12/23 02:22:59;;;;;;;20.67;12.37;;;-2.80;99.90;;;;;;4920388;29;20219;-90
2021/12/23 02:25:28;;;;;;;19.97;12.33;;;-2.80;99.90;;;;;;4920897;29;20238;-91
2021/12/23 02:27:57;;;;;;;17.90;11.77;;;-2.80;99.90;;;;;;4920518;29;20219;-92
2021/12/23 02:30:26;;;;;;;18.27;11.50;;;-2.80;99.90;;;;;;4920289;29;20282;-91
2021/12/23 02:32:53;;;;;;;18.87;11.97;;;-2.70;99.90;;;;;;4920682;29;20206;-91
2021/12/23 02:35:22;;;;;;;18.37;11.43;;;-2.70;99.90;;;;;;4937176;29;20242;-91
2021/12/23 02:37:48;;;;;;;19.83;12.60;;;-2.70;99.90;;;;;;4919814;29;20286;-92
2021/12/23 02:40:27;;;;;;;19.63;12.10;;;-2.70;99.90;;;;;;4919884;29;20203;-93
2021/12/23 02:42:54;;;;;;;20.57;12.37;;;-2.70;99.90;;;;;;4920051;29;20185;-90
2021/12/23 02:45:20;;;;;;;18.87;12.63;;;-2.70;99.90;;;;;;4936134;29;20184;-90
2021/12/23 02:47:46;;;;;;;18.83;11.90;;;-2.70;99.90;;;;;;4935732;29;20241;-91
2021/12/23 02:50:12;;;;;;;19.23;12.23;;;-2.70;99.90;;;;;;4920302;29;20188;-91
2021/12/23 02:52:38;;;;;;;17.70;11.27;;;-2.60;99.90;;;;;;4933497;29;20217;-90
2021/12/23 02:55:05;;;;;;;20.23;11.83;;;-2.70;99.90;;;;;;4919906;29;20191;-93
2021/12/23 02:57:33;;;;;;;22.30;13.63;;;-2.60;99.90;;;;;;4919632;29;20297;-90
2021/12/23 03:00:02;;;;;;;18.67;12.67;;;-2.60;99.90;;;;;;4920211;29;20195;-93
2021/12/23 03:02:27;;;;;;;20.43;13.13;;;-2.60;99.90;;;;;;4919682;29;20197;-93
2021/12/23 03:04:55;;;;;;;22.30;13.60;;;-2.60;99.90;;;;;;4919433;29;20191;-91
2021/12/23 03:07:21;;;;;;;19.43;12.80;;;-2.60;99.90;;;;;;4935753;29;20218;-91
2021/12/23 03:09:47;;;;;;;18.23;11.83;;;-2.60;99.90;;;;;;4935615;29;20281;-90
2021/12/23 03:12:13;;;;;;;19.93;12.80;;;-2.60;99.90;;;;;;4935845;29;20237;-90
2021/12/23 03:14:39;;;;;;;18.87;12.13;;;-2.50;99.90;;;;;;4935609;29;20195;-91
2021/12/23 03:17:05;;;;;;;17.43;11.17;;;-2.60;99.90;;;;;;4935604;29;20292;-90
2021/12/23 03:19:31;;;;;;;21.33;12.17;;;-2.60;99.90;;;;;;4932264;29;20251;-92
2021/12/23 03:21:57;;;;;;;18.93;12.20;;;-2.50;99.90;;;;;;4919556;29;20569;-91
2021/12/23 03:24:24;;;;;;;18.30;11.77;;;-2.50;99.90;;;;;;4935636;29;20201;-93
2021/12/23 03:26:51;;;;;;;20.57;12.20;;;-2.50;99.90;;;;;;4935173;29;20709;-91
2021/12/23 03:29:17;;;;;;;18.90;11.90;;;-2.50;99.90;;;;;;4935775;29;20208;-92
2021/12/23 03:31:43;;;;;;;17.77;11.87;;;-2.50;99.90;;;;;;4919700;29;20183;-91
2021/12/23 03:34:09;;;;;;;18.10;12.00;;;-2.40;99.90;;;;;;4935405;29;20260;-91
2021/12/23 03:36:35;;;;;;;17.97;11.57;;;-2.40;99.90;;;;;;4935486;29;20238;-92
2021/12/23 03:39:03;;;;;;;19.13;11.50;;;-2.40;99.90;;;;;;4919569;29;20267;-90
2021/12/23 03:41:29;;;;;;;18.83;12.03;;;-2.40;99.90;;;;;;4919686;29;20175;-91
2021/12/23 03:43:55;;;;;;;19.40;12.13;;;-2.40;99.90;;;;;;4919718;29;20262;-90
2021/12/23 03:46:21;;;;;;;18.80;11.73;;;-2.40;99.90;;;;;;4919457;29;20301;-92
2021/12/23 03:48:47;;;;;;;16.77;11.10;;;-2.40;99.90;;;;;;4935209;29;20186;-91
2021/12/23 03:51:13;;;;;;;19.27;11.23;;;-2.40;99.90;;;;;;4935396;29;20185;-93
2021/12/23 03:53:39;;;;;;;19.03;11.87;;;-2.40;99.90;;;;;;4919558;29;20200;-92
2021/12/23 03:58:40;;;;;;;19.47;11.93;;;-2.40;99.90;;;;;;5067203;23;20238;-92
2021/12/23 04:01:06;;;;;;;18.97;12.43;;;-2.30;99.90;;;;;;4938626;29;20683;-92
2021/12/23 04:03:33;;;;;;;21.07;12.53;;;-2.30;99.90;;;;;;4945100;28;20180;-91
2021/12/23 04:06:00;;;;;;;19.33;12.03;;;-2.30;99.90;;;;;;4957610;28;20253;-91
2021/12/23 04:08:26;;;;;;;17.57;10.70;;;-2.30;99.90;;;;;;4957354;28;20182;-92
2021/12/23 04:10:51;;;;;;;16.90;11.23;;;-2.30;99.90;;;;;;4957337;28;20635;-91
2021/12/23 04:13:17;;;;;;;16.83;11.60;;;-2.30;99.90;;;;;;4957645;28;20553;-92
2021/12/23 04:15:43;;;;;;;17.73;11.47;;;-2.30;99.90;;;;;;4960308;28;20185;-91
2021/12/23 04:18:09;;;;;;;17.53;11.93;;;-2.30;99.90;;;;;;4960691;28;20696;-91
2021/12/23 04:20:46;;;;;;;18.73;11.70;;;-2.30;99.90;;;;;;4951679;29;20180;-92
2021/12/23 04:23:12;;;;;;;21.37;12.97;;;-2.20;99.90;;;;;;4941687;29;20187;-91
2021/12/23 04:25:38;;;;;;;20.27;12.40;;;-2.20;99.90;;;;;;4941785;29;20215;-92
2021/12/23 04:28:05;;;;;;;20.17;12.10;;;-2.30;99.90;;;;;;4941793;29;20215;-92
2021/12/23 04:30:31;;;;;;;20.33;12.70;;;-2.30;99.90;;;;;;4941289;29;20672;-91
2021/12/23 04:32:57;;;;;;;17.17;11.73;;;-2.30;99.90;;;;;;4941099;29;20192;-91
2021/12/23 04:35:25;;;;;;;18.47;12.07;;;-2.30;99.90;;;;;;4941527;29;20182;-92
2021/12/23 04:37:54;;;;;;;17.90;11.87;;;-2.30;99.90;;;;;;4941116;29;20307;-92
2021/12/23 04:40:20;;;;;;;16.57;11.57;;;-2.30;99.90;;;;;;4941145;29;20186;-93
2021/12/23 04:42:46;;;;;;;18.97;11.97;;;-2.30;99.90;;;;;;4941199;29;20194;-92
2021/12/23 04:45:12;;;;;;;19.27;12.50;;;-2.30;99.90;;;;;;4941501;29;20663;-92
2021/12/23 04:47:38;;;;;;;17.80;11.20;;;-2.30;99.90;;;;;;4938159;29;20265;-92
2021/12/23 04:50:08;;;;;;;17.83;11.60;;;-2.20;99.90;;;;;;4922211;29;20241;-91
2021/12/23 04:52:34;;;;;;;17.27;11.13;;;-2.20;99.90;;;;;;4928744;29;20231;-93
2021/12/23 04:55:00;;;;;;;18.00;11.00;;;-2.20;99.90;;;;;;4941054;29;20186;-94
2021/12/23 04:57:26;;;;;;;18.87;12.47;;;-2.20;99.90;;;;;;4940837;29;20233;-92
2021/12/23 04:59:52;;;;;;;17.80;11.83;;;-2.20;99.90;;;;;;4940973;29;20201;-91
2021/12/23 05:02:19;;;;;;;16.30;11.50;;;-2.20;99.90;;;;;;4936882;29;20243;-93
2021/12/23 05:04:45;;;;;;;19.87;12.03;;;-2.20;99.90;;;;;;4921913;29;20177;-92
2021/12/23 05:07:11;;;;;;;19.53;12.27;;;-2.20;99.90;;;;;;4921744;29;20213;-92
2021/12/23 05:09:37;;;;;;;16.33;11.57;;;-2.20;99.90;;;;;;4936198;29;20190;-92
2021/12/23 05:12:03;;;;;;;18.07;11.93;;;-2.20;99.90;;;;;;4941027;29;20179;-92
2021/12/23 05:14:28;;;;;;;20.27;12.13;;;-2.20;99.90;;;;;;4940866;29;20180;-93
2021/12/23 05:16:55;;;;;;;17.03;11.47;;;-2.20;99.90;;;;;;4940485;29;20247;-92
2021/12/23 05:19:21;;;;;;;21.37;12.40;;;-2.20;99.90;;;;;;4940645;29;20187;-92
2021/12/23 05:21:46;;;;;;;15.93;10.77;;;-2.10;99.90;;;;;;4940797;29;20171;-92
2021/12/23 05:24:12;;;;;;;18.83;11.73;;;-2.10;99.90;;;;;;4940574;29;20596;-92
2021/12/23 05:26:38;;;;;;;16.70;11.53;;;-2.10;99.90;;;;;;4939860;29;20635;-91
2021/12/23 05:29:04;;;;;;;19.50;12.17;;;-2.10;99.90;;;;;;4940692;29;20246;-91
2021/12/23 05:31:29;;;;;;;18.13;12.13;;;-2.10;99.90;;;;;;4940367;29;20190;-92
2021/12/23 05:33:55;;;;;;;22.23;13.10;;;-2.10;99.90;;;;;;4930351;29;20204;-91
2021/12/23 05:36:21;;;;;;;17.57;11.33;;;-2.10;99.90;;;;;;4940328;29;20215;-92
2021/12/23 05:38:47;;;;;;;19.33;11.03;;;-2.10;99.90;;;;;;4939964;29;20349;-92
2021/12/23 05:41:13;;;;;;;17.30;11.87;;;-2.00;99.90;;;;;;4940494;29;20205;-92
2021/12/23 05:43:39;;;;;;;19.50;12.17;;;-2.00;99.90;;;;;;4940381;29;20650;-93
2021/12/23 05:46:04;;;;;;;17.27;11.57;;;-2.00;99.90;;;;;;4939820;29;20180;-91
2021/12/23 05:48:30;;;;;;;17.23;10.73;;;-2.00;99.90;;;;;;4937032;29;20202;-91
2021/12/23 05:50:56;;;;;;;18.13;10.63;;;-2.00;99.90;;;;;;4932258;29;20190;-91
2021/12/23 05:53:22;;;;;;;17.67;10.83;;;-2.00;99.90;;;;;;4940111;29;20223;-92
2021/12/23 05:55:48;;;;;;;15.67;10.47;;;-2.00;99.90;;;;;;4940408;29;20287;-91
2021/12/23 05:58:13;;;;;;;15.60;9.80;;;-2.00;99.90;;;;;;4939824;29;20230;-92
2021/12/23 06:00:39;;;;;;;15.13;10.03;;;-2.00;99.90;;;;;;4938863;29;20185;-92
2021/12/23 06:03:05;;;;;;;16.90;10.87;;;-1.90;99.90;;;;;;4931711;29;20283;-92
2021/12/23 06:05:31;;;;;;;15.77;11.17;;;-1.90;99.90;;;;;;4939757;29;20176;-92
2021/12/23 06:07:58;;;;;;;18.27;11.53;;;-1.90;99.90;;;;;;4939678;29;20225;-92
2021/12/23 06:10:23;;;;;;;20.00;12.03;;;-2.00;99.90;;;;;;4939680;29;20240;-91
2021/12/23 06:12:49;;;;;;;18.60;10.67;;;-2.00;99.90;;;;;;4939650;29;20183;-92
2021/12/23 06:15:16;;;;;;;17.00;11.00;;;-2.00;99.90;;;;;;4939808;29;20179;-92
2021/12/23 06:17:42;;;;;;;18.20;11.33;;;-1.90;99.90;;;;;;4939767;29;20231;-92
2021/12/23 06:20:09;;;;;;;21.17;12.63;;;-1.90;99.90;;;;;;4939928;29;20179;-92
2021/12/23 06:22:36;;;;;;;16.90;10.90;;;-1.90;99.90;;;;;;4939387;29;20188;-91
2021/12/23 06:25:06;;;;;;;18.47;11.70;;;-1.90;99.90;;;;;;4939517;29;20183;-91
2021/12/23 06:27:33;;;;;;;17.30;10.70;;;-1.90;99.90;;;;;;4939127;29;20773;-92
2021/12/23 06:29:59;;;;;;;17.13;10.67;;;-1.90;99.90;;;;;;4939506;29;20623;-92
2021/12/23 06:32:24;;;;;;;16.27;10.67;;;-1.90;99.90;;;;;;4939498;29;20219;-94
2021/12/23 06:34:50;;;;;;;16.37;11.03;;;-1.90;99.90;;;;;;4937521;29;20674;-92
2021/12/23 06:37:17;;;;;;;16.80;11.37;;;-1.90;99.90;;;;;;4938418;28;20228;-91
2021/12/23 06:39:46;;;;;;;17.97;11.87;;;-1.90;99.90;;;;;;4944497;29;20271;-92
2021/12/23 06:42:13;;;;;;;19.20;11.70;;;-1.90;99.90;;;;;;4939275;29;20214;-92
2021/12/23 06:44:47;;;;;;;18.43;11.87;;;-1.90;99.90;;;;;;4939194;29;20182;-92
2021/12/23 06:47:37;;;;;;;17.33;10.93;;;-1.80;99.90;;;;;;4939170;29;20220;-92
2021/12/23 06:50:06;;;;;;;17.77;11.53;;;-1.80;99.90;;;;;;4940789;29;20200;-92
2021/12/23 06:52:51;;;;;;;16.57;11.27;;;-1.80;99.90;;;;;;4938712;29;20203;-93
2021/12/23 06:55:18;;;;;;;16.73;10.83;;;-1.80;99.90;;;;;;4938971;29;20179;-92
2021/12/23 06:57:45;;;;;;;17.33;11.43;;;-1.80;99.90;;;;;;4938445;29;20299;-91
2021/12/23 07:00:21;;;;;;;17.73;11.37;;;-1.80;99.90;;;;;;4938739;29;20662;-93
2021/12/23 07:02:53;;;;;;;16.53;10.43;;;-1.80;99.90;;;;;;4938920;29;20702;-91
2021/12/23 07:05:21;;;;;;;16.23;10.27;;;-1.80;99.90;;;;;;4939074;29;20211;-93
2021/12/23 07:08:06;;;;;;;18.37;10.53;;;-1.80;99.90;;;;;;4939194;29;20207;-93
2021/12/23 07:10:42;;;;;;;16.17;10.17;;;-1.70;99.90;;;;;;4939142;29;20280;-91
2021/12/23 07:13:07;;;;;;;17.57;10.73;;;-1.70;99.90;;;;;;4939257;29;20267;-93
2021/12/23 07:15:41;;;;;;;15.23;10.40;;;-1.70;99.90;;;;;;4939333;29;20309;-92
2021/12/23 07:18:08;;;;;;;13.77;9.87;;;-1.70;99.90;;;;;;4938723;29;20255;-95
2021/12/23 07:20:53;;;;;;;18.60;10.23;;;-1.60;99.90;;;;;;4938866;29;20191;-92
2021/12/23 07:23:36;;;;;;;14.90;10.10;;;-1.60;99.90;;;;;;4938866;29;20181;-92
2021/12/23 07:26:04;;;;;;;14.07;9.53;;;-1.60;99.90;;;;;;4938193;29;20318;-92
2021/12/23 07:28:32;;;;;;;12.70;9.20;;;-1.50;99.90;;;;;;4938934;29;20227;-91
2021/12/23 07:30:59;;;;;;;12.83;9.33;;;-1.50;99.90;;;;;;4929593;29;20263;-93
2021/12/23 07:33:34;;;;;;;13.53;9.57;;;-1.40;99.90;;;;;;4919492;29;20730;-92
2021/12/23 07:36:04;;;;;;;13.90;9.47;;;-1.40;99.90;;;;;;4919498;29;20196;-92
2021/12/23 07:38:32;;;;;;;15.10;10.03;;;-1.30;99.90;;;;;;4919758;29;20267;-91
2021/12/23 07:41:17;;;;;;;14.00;9.60;;;-1.30;99.90;;;;;;4919767;29;20176;-94
2021/12/23 07:44:00;;;;;;;15.90;10.33;;;-1.30;99.90;;;;;;4919938;29;20537;-92
2021/12/23 07:46:27;;;;;;;14.40;9.93;;;-1.20;99.90;;;;;;4919655;29;20207;-91
2021/12/23 07:48:55;;;;;;;17.63;9.80;;;-1.20;99.90;;;;;;4919505;29;20236;-91
2021/12/23 07:51:33;;;;;;;16.97;11.17;;;-1.20;99.90;;;;;;4923666;29;20271;-92
2021/12/23 07:53:59;;;;;;;23.73;14.13;;;-1.00;99.90;;;;;;4923353;29;20231;-92
2021/12/23 07:56:31;;;;;;;21.17;13.40;;;-1.10;99.90;;;;;;4957355;28;20685;-93
2021/12/23 07:59:11;;;;;;;16.93;10.70;;;-1.20;99.90;;;;;;4961311;28;20241;-92
2021/12/23 08:01:38;;;;;;;15.57;10.30;;;-1.20;99.90;;;;;;4961359;28;20253;-93
2021/12/23 08:04:21;;;;;;;13.77;9.73;;;-1.20;99.90;;;;;;4961206;28;20190;-93
2021/12/23 08:06:54;;;;;;;16.27;9.60;;;-1.30;99.90;;;;;;4961524;28;20303;-92
2021/12/23 08:09:28;;;;;;;13.80;9.93;;;-1.30;99.90;;;;;;4961489;28;20210;-92
2021/12/23 08:12:05;;;;;;;14.30;9.83;;;-1.30;99.90;;;;;;4959365;28;20192;-93
2021/12/23 08:14:32;;;;;;;15.53;10.27;;;-1.20;99.90;;;;;;4941933;28;20613;-92
2021/12/23 08:17:01;;;;;;;14.93;9.47;;;-1.20;99.90;;;;;;4942004;29;20207;-93
2021/12/23 08:19:28;;;;;;;14.37;8.97;;;-1.20;99.90;;;;;;4942262;29;20186;-94
2021/12/23 08:21:59;;;;;;;14.50;9.37;;;-1.20;99.90;;;;;;4941863;29;20646;-92
2021/12/23 08:24:26;;;;;;;14.57;9.40;;;-1.20;99.90;;;;;;4941442;29;20183;-92
2021/12/23 08:26:54;;;;;;;12.77;9.10;;;-1.20;99.90;;;;;;4941857;29;20205;-93
2021/12/23 08:29:24;;;;;;;14.73;10.67;;;-1.20;99.90;;;;;;4938533;29;20294;-94
2021/12/23 08:31:53;;;;;;;17.37;10.77;;;-1.10;99.90;;;;;;4923062;29;20189;-93
2021/12/23 08:34:24;;;;;;;16.63;10.97;;;-1.10;99.90;;;;;;4945931;29;20185;-92
2021/12/23 08:36:52;;;;;;;17.50;11.67;;;-1.10;99.90;;;;;;4938619;29;20219;-92
2021/12/23 08:39:23;;;;;;;17.73;11.60;;;-1.10;99.90;;;;;;4922628;29;20182;-93
2021/12/23 08:41:50;;;;;;;16.87;11.93;;;-1.10;99.90;;;;;;4922328;29;20194;-93
2021/12/23 08:44:18;;;;;;;19.33;12.53;;;-1.10;99.90;;;;;;4922555;29;20181;-92
2021/12/23 08:46:51;;;;;;;18.13;12.23;;;-1.10;99.90;;;;;;4922345;29;20208;-92
2021/12/23 08:49:17;;;;;;;18.33;12.20;;;-1.00;99.90;;;;;;4941320;29;20201;-92
2021/12/23 08:51:45;;;;;;;17.57;12.07;;;-1.10;99.90;;;;;;4941746;29;20180;-92
2021/12/23 08:54:11;;;;;;;21.83;12.50;;;-1.00;99.90;;;;;;4941466;29;20177;-92
2021/12/23 08:56:38;;;;;;;21.83;12.37;;;-1.00;99.90;;;;;;4940962;29;20231;-94
2021/12/23 08:59:08;;;;;;;21.33;13.17;;;-1.00;99.90;;;;;;4940989;29;20231;-93
2021/12/23 09:01:39;;;;;;;18.07;11.93;;;-1.00;99.90;;;;;;4940117;29;20256;-93
2021/12/23 09:04:20;;;;;;;17.80;12.27;;;-1.00;99.90;;;;;;4941507;29;20180;-93
2021/12/23 09:06:50;;;;;;;17.70;11.90;;;-1.00;99.90;;;;;;4941731;28;20204;-92
2021/12/23 09:09:24;;;;;;;16.37;11.23;;;-0.90;99.90;;;;;;4960633;28;20268;-92
2021/12/23 09:12:22;;;;;;;19.27;11.90;;;-0.90;99.90;;;;;;4960385;28;20184;-94
2021/12/23 09:14:54;;;;;;;18.43;11.90;;;-0.90;99.90;;;;;;4960271;28;20177;-94
2021/12/23 09:17:21;;;;;;;18.43;12.43;;;-0.80;99.90;;;;;;4959958;28;20228;-92
2021/12/23 09:20:20;;;;;;;18.43;12.07;;;-0.80;99.90;;;;;;4959995;28;20252;-92
2021/12/23 09:22:51;;;;;;;19.43;13.00;;;-0.80;99.90;;;;;;4960253;28;20175;-93
2021/12/23 09:25:24;;;;;;;20.40;13.13;;;-0.80;99.90;;;;;;4959724;28;20191;-93
2021/12/23 09:33:25;;;;;;;18.73;11.53;;;-0.80;99.90;;;;;;4977318;28;20183;-92
2021/12/23 09:36:17;;;;;;;19.20;12.40;;;-0.70;99.90;;;;;;4959664;28;20180;-93
2021/12/23 09:38:45;;;;;;;19.67;12.63;;;-0.70;99.90;;;;;;4960198;28;20216;-93
2021/12/23 09:41:18;;;;;;;19.10;12.87;;;-0.60;99.90;;;;;;4959887;28;20176;-92
2021/12/23 09:43:51;;;;;;;20.80;13.73;;;-0.60;99.90;;;;;;4959781;28;20182;-93
2021/12/23 09:46:39;;;;;;;19.43;11.87;;;-0.70;99.90;;;;;;4959656;28;20266;-93
2021/12/23 09:49:14;;;;;;;21.97;16.67;;;-0.60;99.90;;;;;;4959698;28;20214;-93
2021/12/23 09:52:07;;;;;;;25.07;16.20;;;-0.60;99.90;;;;;;4959930;28;20354;-93
2021/12/23 09:55:03;;;;;;;18.20;12.47;;;-0.50;99.90;;;;;;4959768;28;20243;-92
2021/12/23 09:57:52;;;;;;;17.70;12.37;;;-0.60;99.90;;;;;;4959281;28;20242;-94
2021/12/23 10:00:45;;;;;;;18.77;12.43;;;-0.50;99.90;;;;;;4959586;28;20212;-93
2021/12/23 10:03:21;;;;;;;18.27;12.27;;;-0.60;99.90;;;;;;4959331;28;20237;-94
2021/12/23 10:05:52;;;;;;;19.70;13.30;;;-0.50;99.90;;;;;;4959165;28;20271;-93
2021/12/23 10:08:20;;;;;;;19.30;12.93;;;-0.50;99.90;;;;;;4959158;28;20238;-93
2021/12/23 10:11:06;;;;;;;16.47;11.50;;;-0.50;99.90;;;;;;4959373;28;20204;-93
2021/12/23 10:32:49;;;;;;;20.07;13.83;;;-0.50;99.90;;;;;;4976459;28;20641;-94
2021/12/23 10:37:20;;;;;;;20.80;13.60;;;-0.50;99.90;;;;;;4976166;28;20232;-94
2021/12/23 10:40:11;;;;;;;18.57;12.90;;;-0.50;99.90;;;;;;4958240;28;20189;-93
2021/12/23 10:42:49;;;;;;;19.20;12.27;;;-0.40;99.90;;;;;;4949284;28;20187;-94
2021/12/23 10:45:21;;;;;;;20.77;13.60;;;-0.40;99.90;;;;;;4958613;28;20251;-95
2021/12/23 10:50:36;;;;;;;20.10;14.03;;;-0.30;99.90;;;;;;4975601;28;20268;-95
2021/12/23 10:59:35;;;;;;;30.10;19.37;;;-0.30;99.90;;;;;;4975754;28;20265;-95
2021/12/23 11:02:29;;;;;;;32.93;19.73;;;-0.30;99.90;;;;;;4958387;28;20705;-95
2021/12/23 11:08:37;;;;;;;29.77;19.50;;;-0.10;99.90;;;;;;4975691;28;20271;-96
2021/12/23 11:37:51;;;;;;;34.53;21.53;;;0.10;99.90;;;;;;4982839;28;20222;-96
2021/12/23 11:41:00;;;;;;;34.17;21.30;;;0.10;99.90;;;;;;4983862;28;20214;-96
2021/12/23 11:43:13;;;;;;;33.60;21.83;;;0.10;99.90;;;;;;4977890;28;20545;-96
2021/12/23 11:45:46;;;;;;;32.40;21.43;;;0.10;99.90;;;;;;4957228;28;20659;-96
2021/12/23 11:48:19;;;;;;;30.33;20.30;;;0.10;99.90;;;;;;4974652;28;20192;-96
2021/12/23 11:51:07;;;;;;;34.17;22.17;;;0.10;99.90;;;;;;4975344;23;20239;-94
2021/12/23 12:00:31;;;;;;;;;;;;;;;;;;;;;
2021/12/23 12:06:25;;;;;;;30.67;21.23;;;0.20;99.90;;;;;;4958999;29;20208;-96
2021/12/23 12:10:06;;;;;;;32.03;20.67;;;0.20;99.90;;;;;;4954264;29;20177;-96
2021/12/23 12:13:10;;;;;;;33.13;21.60;;;0.20;99.90;;;;;;4915509;29;20201;-96
2021/12/23 12:16:10;;;;;;;34.23;21.90;;;0.20;99.90;;;;;;4934290;29;20185;-96
2021/12/23 12:18:59;;;;;;;;;;;;;;;;;;;;;
2021/12/23 12:21:52;;;;;;;34.87;22.53;;;0.20;99.90;;;;;;4969855;29;20214;-96
2021/12/23 12:24:46;;;;;;;33.63;20.97;;;0.20;99.90;;;;;;4956860;29;20188;-96
2021/12/23 14:47:24;;;;;;;37.00;22.67;;;0.50;99.90;;;;;;4986065;23;20485;-95
2021/12/23 14:50:00;;;;;;;37.87;24.50;;;0.50;99.90;;;;;;4960974;28;20197;-95
2021/12/23 14:52:53;;;;;;;39.07;23.97;;;0.50;99.90;;;;;;4953809;28;20228;-95
2021/12/23 14:55:24;;;;;;;38.40;24.70;;;0.50;99.90;;;;;;4959127;28;20181;-95
2021/12/23 14:57:54;;;;;;;41.00;25.40;;;0.50;99.90;;;;;;4959026;28;20590;-96
2021/12/23 15:00:31;;;;;;;41.13;24.80;;;0.50;99.90;;;;;;4959017;28;20196;-94
2021/12/23 15:03:10;;;;;;;40.77;25.53;;;0.50;99.90;;;;;;4976170;28;20682;-94
2021/12/23 15:05:38;;;;;;;39.30;24.57;;;0.50;99.90;;;;;;4959431;28;20188;-93
2021/12/23 15:08:07;;;;;;;36.97;24.30;;;0.50;99.90;;;;;;4959364;28;20181;-96
2021/12/23 15:10:48;;;;;;;42.27;25.67;;;0.50;99.90;;;;;;4955941;29;20193;-92
2021/12/23 15:13:21;;;;;;;40.00;24.93;;;0.50;99.90;;;;;;4940046;29;20203;-93
2021/12/23 15:16:03;;;;;;;42.23;25.90;;;0.50;99.90;;;;;;4954839;28;20182;-92
2021/12/23 15:18:42;;;;;;;42.47;25.53;;;0.50;99.90;;;;;;4944744;28;20209;-93
2021/12/23 15:21:17;;;;;;;40.13;22.90;;;0.50;99.90;;;;;;4956959;28;20180;-93
2021/12/23 15:23:46;;;;;;;40.73;25.40;;;0.50;99.90;;;;;;4958779;28;20200;-93
2021/12/23 15:26:24;;;;;;;42.30;25.17;;;0.50;99.90;;;;;;4958423;28;20185;-93
2021/12/23 15:29:19;;;;;;;39.40;24.30;;;0.50;99.90;;;;;;4958593;28;20192;-95
2021/12/23 15:32:18;;;;;;;39.43;24.93;;;0.50;99.90;;;;;;4958265;28;20678;-93
2021/12/23 15:34:50;;;;;;;41.23;25.10;;;0.50;99.90;;;;;;4951426;28;20211;-92
2021/12/23 15:37:17;;;;;;;39.97;26.40;;;0.50;99.90;;;;;;4959002;28;20177;-92
2021/12/23 15:39:43;;;;;;;46.70;25.57;;;0.50;99.90;;;;;;4955103;28;20177;-92
2021/12/23 15:42:12;;;;;;;40.60;24.20;;;0.60;99.90;;;;;;4949540;28;20526;-92
2021/12/23 15:44:39;;;;;;;41.80;25.03;;;0.60;99.90;;;;;;4952394;28;20528;-92
2021/12/23 15:47:09;;;;;;;39.10;24.73;;;0.60;99.90;;;;;;4958033;28;20311;-94
2021/12/23 15:49:35;;;;;;;38.27;23.20;;;0.60;99.90;;;;;;4958553;28;20627;-94
2021/12/23 15:52:02;;;;;;;41.47;24.13;;;0.60;99.90;;;;;;4958467;28;20193;-94
2021/12/23 15:54:28;;;;;;;39.37;23.90;;;0.60;99.90;;;;;;4958508;28;20194;-93
2021/12/23 15:56:55;;;;;;;41.70;24.73;;;0.60;99.90;;;;;;4957784;28;20208;-93
2021/12/23 15:59:22;;;;;;;36.60;23.30;;;0.60;99.90;;;;;;4958405;28;20218;-94
2021/12/23 16:01:47;;;;;;;43.97;25.00;;;0.60;99.90;;;;;;4958904;28;20212;-93
2021/12/23 16:04:16;;;;;;;41.17;24.90;;;0.70;99.90;;;;;;4958447;28;20223;-93
2021/12/23 16:09:28;;;;;;;37.30;24.37;;;0.70;99.90;;;;;;4975999;28;20231;-94
2021/12/23 16:11:53;;;;;;;40.10;24.80;;;0.70;99.90;;;;;;4961862;28;20223;-92
2021/12/23 16:14:24;;;;;;;36.90;23.93;;;0.70;99.90;;;;;;4962185;28;20192;-95
2021/12/23 16:16:51;;;;;;;40.33;24.20;;;0.70;99.90;;;;;;4962016;28;20184;-95
2021/12/23 16:19:17;;;;;;;41.17;25.07;;;0.60;99.90;;;;;;4962030;28;20259;-95
2021/12/23 16:21:42;;;;;;;41.63;24.23;;;0.70;99.90;;;;;;4962075;28;20216;-94
2021/12/23 16:24:08;;;;;;;38.20;22.13;;;0.70;99.90;;;;;;4961353;28;20191;-93
2021/12/23 16:26:34;;;;;;;39.80;24.77;;;0.70;99.90;;;;;;4961439;28;20185;-93
2021/12/23 16:29:00;;;;;;;41.47;24.63;;;0.70;99.90;;;;;;4962222;28;20180;-93
2021/12/23 16:31:28;;;;;;;42.33;24.67;;;0.70;99.90;;;;;;4961599;28;20188;-94
2021/12/23 16:33:54;;;;;;;37.70;23.53;;;0.80;99.90;;;;;;4961384;28;20189;-91